sensor_id;sensor_type;location;lat;lon;timestamp;pressure;altitude;pressure_sealevel;temperature;humidity
64336;BME280;50672;53.362;-6.240;2022-10-16T00:01:11;99903.28;;;8.10;75.54
64336;BME280;50672;53.362;-6.240;2022-10-16T00:03:39;99895.34;;;8.08;75.54
64336;BME280;50672;53.362;-6.240;2022-10-16T00:06:06;99899.88;;;8.08;75.54
64336;BME280;50672;53.362;-6.240;2022-10-16T00:08:33;99913.63;;;8.06;75.45
64336;BME280;50672;53.362;-6.240;2022-10-16T00:13:37;99919.03;;;8.06;75.51
64336;BME280;50672;53.362;-6.240;2022-10-16T00:16:05;99920.75;;;8.07;75.77
64336;BME280;50672;53.362;-6.240;2022-10-16T00:18:32;99924.47;;;8.06;75.64
64336;BME280;50672;53.362;-6.240;2022-10-16T00:21:11;99931.56;;;8.07;75.46
64336;BME280;50672;53.362;-6.240;2022-10-16T00:23:39;99938.16;;;8.13;75.66
64336;BME280;50672;53.362;-6.240;2022-10-16T00:26:09;99946.09;;;8.14;75.54
64336;BME280;50672;53.362;-6.240;2022-10-16T00:28:37;99943.38;;;8.14;75.38
64336;BME280;50672;53.362;-6.240;2022-10-16T00:31:10;99942.56;;;8.14;75.56
64336;BME280;50672;53.362;-6.240;2022-10-16T00:33:38;99941.69;;;8.13;75.40
64336;BME280;50672;53.362;-6.240;2022-10-16T00:36:06;99954.41;;;8.13;75.38
64336;BME280;50672;53.362;-6.240;2022-10-16T00:38:33;99949.34;;;8.10;75.29
64336;BME280;50672;53.362;-6.240;2022-10-16T00:41:00;99960.38;;;8.08;75.19
64336;BME280;50672;53.362;-6.240;2022-10-16T00:48:47;99963.28;;;8.07;75.17
64336;BME280;50672;53.362;-6.240;2022-10-16T00:51:15;99964.47;;;8.04;75.08
64336;BME280;50672;53.362;-6.240;2022-10-16T00:53:41;99963.41;;;8.05;75.00
64336;BME280;50672;53.362;-6.240;2022-10-16T00:56:08;99963.41;;;8.05;75.08
64336;BME280;50672;53.362;-6.240;2022-10-16T00:58:35;99970.53;;;8.06;74.87
64336;BME280;50672;53.362;-6.240;2022-10-16T01:01:02;99978.31;;;8.09;74.80
64336;BME280;50672;53.362;-6.240;2022-10-16T01:03:35;99986.75;;;8.14;74.64
64336;BME280;50672;53.362;-6.240;2022-10-16T01:06:17;99981.66;;;8.19;74.56
64336;BME280;50672;53.362;-6.240;2022-10-16T01:09:09;99983.34;;;8.20;74.28
64336;BME280;50672;53.362;-6.240;2022-10-16T01:11:49;99971.47;;;8.21;74.41
64336;BME280;50672;53.362;-6.240;2022-10-16T01:18:45;99991.13;;;8.24;74.17
64336;BME280;50672;53.362;-6.240;2022-10-16T01:22:10;99995.50;;;8.25;73.92
64336;BME280;50672;53.362;-6.240;2022-10-16T01:26:31;99982.81;;;8.25;73.90
64336;BME280;50672;53.362;-6.240;2022-10-16T01:29:26;99999.25;;;8.24;73.51
64336;BME280;50672;53.362;-6.240;2022-10-16T01:33:02;100001.22;;;8.30;73.67
64336;BME280;50672;53.362;-6.240;2022-10-16T01:36:14;100010.38;;;8.29;73.48
64336;BME280;50672;53.362;-6.240;2022-10-16T01:38:44;100011.25;;;8.29;73.34
64336;BME280;50672;53.362;-6.240;2022-10-16T01:41:38;100022.91;;;8.30;73.07
64336;BME280;50672;53.362;-6.240;2022-10-16T01:45:20;100020.53;;;8.35;72.91
64336;BME280;50672;53.362;-6.240;2022-10-16T01:48:47;100026.31;;;8.32;72.83
64336;BME280;50672;53.362;-6.240;2022-10-16T01:56:05;100052.59;;;8.23;72.48
64336;BME280;50672;53.362;-6.240;2022-10-16T01:59:31;100049.59;;;8.18;72.55
64336;BME280;50672;53.362;-6.240;2022-10-16T02:02:58;100065.19;;;8.16;72.48
64336;BME280;50672;53.362;-6.240;2022-10-16T02:06:24;100063.03;;;8.11;72.29
64336;BME280;50672;53.362;-6.240;2022-10-16T02:09:51;100064.38;;;8.07;72.31
64336;BME280;50672;53.362;-6.240;2022-10-16T02:13:51;100069.13;;;8.05;72.56
64336;BME280;50672;53.362;-6.240;2022-10-16T02:16:41;100070.16;;;8.04;72.52
64336;BME280;50672;53.362;-6.240;2022-10-16T02:20:06;100075.59;;;8.04;72.34
64336;BME280;50672;53.362;-6.240;2022-10-16T02:24:06;100097.09;;;8.06;72.58
64336;BME280;50672;53.362;-6.240;2022-10-16T02:33:25;100114.22;;;7.98;72.49
64336;BME280;50672;53.362;-6.240;2022-10-16T02:37:19;100113.06;;;7.92;72.68
64336;BME280;50672;53.362;-6.240;2022-10-16T02:40:46;100113.75;;;7.86;72.66
64336;BME280;50672;53.362;-6.240;2022-10-16T02:44:30;100125.78;;;7.83;72.73
64336;BME280;50672;53.362;-6.240;2022-10-16T02:47:57;100136.09;;;7.80;72.71
64336;BME280;50672;53.362;-6.240;2022-10-16T02:51:23;100145.09;;;7.80;72.83
64336;BME280;50672;53.362;-6.240;2022-10-16T02:54:50;100150.53;;;7.80;72.82
64336;BME280;50672;53.362;-6.240;2022-10-16T03:02:07;100168.63;;;7.80;72.82
64336;BME280;50672;53.362;-6.240;2022-10-16T03:05:34;100168.63;;;7.80;72.51
64336;BME280;50672;53.362;-6.240;2022-10-16T03:09:18;100171.34;;;7.80;72.33
64336;BME280;50672;53.362;-6.240;2022-10-16T03:12:45;100176.56;;;7.81;72.12
64336;BME280;50672;53.362;-6.240;2022-10-16T03:20:03;100192.34;;;7.78;71.98
64336;BME280;50672;53.362;-6.240;2022-10-16T03:23:29;100197.94;;;7.76;71.77
64336;BME280;50672;53.362;-6.240;2022-10-16T03:26:56;100200.66;;;7.76;71.63
64336;BME280;50672;53.362;-6.240;2022-10-16T03:30:48;100210.31;;;7.79;71.40
64336;BME280;50672;53.362;-6.240;2022-10-16T03:34:15;100209.94;;;7.82;71.30
64336;BME280;50672;53.362;-6.240;2022-10-16T03:37:41;100210.97;;;7.81;71.24
64336;BME280;50672;53.362;-6.240;2022-10-16T03:41:08;100226.38;;;7.80;70.78
64336;BME280;50672;53.362;-6.240;2022-10-16T03:44:37;100228.41;;;7.78;70.85
64336;BME280;50672;53.362;-6.240;2022-10-16T03:47:43;100243.00;;;7.77;70.70
64336;BME280;50672;53.362;-6.240;2022-10-16T03:50:10;100262.09;;;7.76;70.63
64336;BME280;50672;53.362;-6.240;2022-10-16T03:52:37;100244.66;;;7.78;70.56
64336;BME280;50672;53.362;-6.240;2022-10-16T03:55:04;100254.84;;;7.76;70.48
64336;BME280;50672;53.362;-6.240;2022-10-16T03:57:31;100265.66;;;7.76;70.61
64336;BME280;50672;53.362;-6.240;2022-10-16T03:59:58;100264.66;;;7.77;70.42
64336;BME280;50672;53.362;-6.240;2022-10-16T04:02:24;100274.47;;;7.78;70.50
64336;BME280;50672;53.362;-6.240;2022-10-16T04:05:11;100272.25;;;7.74;70.22
64336;BME280;50672;53.362;-6.240;2022-10-16T04:08:18;100296.28;;;7.68;70.53
64336;BME280;50672;53.362;-6.240;2022-10-16T04:11:05;100305.78;;;7.64;70.41
64336;BME280;50672;53.362;-6.240;2022-10-16T04:14:59;100325.25;;;7.60;70.42
64336;BME280;50672;53.362;-6.240;2022-10-16T04:18:26;100319.31;;;7.56;70.38
64336;BME280;50672;53.362;-6.240;2022-10-16T04:21:32;100327.44;;;7.56;70.42
64336;BME280;50672;53.362;-6.240;2022-10-16T04:24:19;100335.72;;;7.55;70.46
64336;BME280;50672;53.362;-6.240;2022-10-16T04:27:45;100342.84;;;7.56;70.53
64336;BME280;50672;53.362;-6.240;2022-10-16T04:34:42;100361.78;;;7.56;70.47
64336;BME280;50672;53.362;-6.240;2022-10-16T04:37:29;100375.16;;;7.57;70.51
64336;BME280;50672;53.362;-6.240;2022-10-16T04:40:34;100387.88;;;7.57;70.57
64336;BME280;50672;53.362;-6.240;2022-10-16T04:43:22;100396.00;;;7.57;70.51
64336;BME280;50672;53.362;-6.240;2022-10-16T04:46:52;100386.34;;;7.54;70.56
64336;BME280;50672;53.362;-6.240;2022-10-16T04:50:18;100399.34;;;7.50;70.53
64336;BME280;50672;53.362;-6.240;2022-10-16T04:57:36;100420.00;;;7.51;70.60
64336;BME280;50672;53.362;-6.240;2022-10-16T05:01:02;100416.31;;;7.52;70.46
64336;BME280;50672;53.362;-6.240;2022-10-16T05:08:00;100415.81;;;7.65;70.51
64336;BME280;50672;53.362;-6.240;2022-10-16T05:10:27;100413.66;;;7.69;70.62
64336;BME280;50672;53.362;-6.240;2022-10-16T05:12:54;100413.47;;;7.70;70.44
64336;BME280;50672;53.362;-6.240;2022-10-16T05:15:41;100426.84;;;7.72;70.29
64336;BME280;50672;53.362;-6.240;2022-10-16T05:19:07;100409.25;;;7.68;70.24
64336;BME280;50672;53.362;-6.240;2022-10-16T05:22:11;100396.34;;;7.70;70.39
64336;BME280;50672;53.362;-6.240;2022-10-16T05:24:38;100407.91;;;7.72;70.18
64336;BME280;50672;53.362;-6.240;2022-10-16T05:27:05;100400.78;;;7.71;70.11
64336;BME280;50672;53.362;-6.240;2022-10-16T05:29:31;100410.06;;;7.68;70.22
64336;BME280;50672;53.362;-6.240;2022-10-16T05:32:18;100418.53;;;7.65;70.36
64336;BME280;50672;53.362;-6.240;2022-10-16T05:35:41;100434.63;;;7.67;70.21
64336;BME280;50672;53.362;-6.240;2022-10-16T05:38:08;100429.75;;;7.70;70.26
64336;BME280;50672;53.362;-6.240;2022-10-16T05:40:43;100425.16;;;7.71;70.00
64336;BME280;50672;53.362;-6.240;2022-10-16T05:43:30;100429.03;;;7.68;70.18
64336;BME280;50672;53.362;-6.240;2022-10-16T05:46:13;100436.31;;;7.68;70.24
64336;BME280;50672;53.362;-6.240;2022-10-16T05:49:00;100431.56;;;7.70;70.27
64336;BME280;50672;53.362;-6.240;2022-10-16T05:52:44;100452.78;;;7.75;70.42
64336;BME280;50672;53.362;-6.240;2022-10-16T05:55:51;100456.50;;;7.74;70.28
64336;BME280;50672;53.362;-6.240;2022-10-16T05:59:14;100456.66;;;7.72;70.38
64336;BME280;50672;53.362;-6.240;2022-10-16T06:02:41;100463.25;;;7.69;70.13
64336;BME280;50672;53.362;-6.240;2022-10-16T06:06:08;100484.38;;;7.66;70.25
64336;BME280;50672;53.362;-6.240;2022-10-16T06:09:59;100494.38;;;7.65;70.36
64336;BME280;50672;53.362;-6.240;2022-10-16T06:13:06;100496.56;;;7.62;70.43
64336;BME280;50672;53.362;-6.240;2022-10-16T06:15:53;100494.34;;;7.57;70.38
64336;BME280;50672;53.362;-6.240;2022-10-16T06:19:19;100508.59;;;7.59;70.43
64336;BME280;50672;53.362;-6.240;2022-10-16T06:22:46;100504.19;;;7.58;70.32
64336;BME280;50672;53.362;-6.240;2022-10-16T06:26:14;100509.94;;;7.55;70.38
64336;BME280;50672;53.362;-6.240;2022-10-16T06:29:56;100517.19;;;7.55;70.57
64336;BME280;50672;53.362;-6.240;2022-10-16T06:33:22;100529.06;;;7.53;70.54
64336;BME280;50672;53.362;-6.240;2022-10-16T06:36:49;100537.81;;;7.47;70.74
64336;BME280;50672;53.362;-6.240;2022-10-16T06:40:15;100544.53;;;7.43;70.86
64336;BME280;50672;53.362;-6.240;2022-10-16T06:43:42;100561.59;;;7.35;71.01
64336;BME280;50672;53.362;-6.240;2022-10-16T06:47:16;100577.78;;;7.27;71.25
64336;BME280;50672;53.362;-6.240;2022-10-16T06:49:43;100587.25;;;7.23;71.16
64336;BME280;50672;53.362;-6.240;2022-10-16T06:52:13;100592.28;;;7.18;71.35
64336;BME280;50672;53.362;-6.240;2022-10-16T06:54:40;100608.13;;;7.13;71.45
64336;BME280;50672;53.362;-6.240;2022-10-16T06:57:08;100606.59;;;7.10;71.53
64336;BME280;50672;53.362;-6.240;2022-10-16T06:59:34;100618.44;;;7.09;71.62
64336;BME280;50672;53.362;-6.240;2022-10-16T07:02:01;100623.84;;;7.09;71.67
64336;BME280;50672;53.362;-6.240;2022-10-16T07:04:28;100632.13;;;7.08;71.78
64336;BME280;50672;53.362;-6.240;2022-10-16T07:06:55;100634.34;;;7.12;72.07
64336;BME280;50672;53.362;-6.240;2022-10-16T07:09:21;100635.91;;;7.15;72.10
64336;BME280;50672;53.362;-6.240;2022-10-16T07:12:08;100632.03;;;7.17;72.27
64336;BME280;50672;53.362;-6.240;2022-10-16T07:14:55;100629.31;;;7.17;72.42
64336;BME280;50672;53.362;-6.240;2022-10-16T07:17:42;100640.31;;;7.16;72.54
64336;BME280;50672;53.362;-6.240;2022-10-16T07:21:10;100644.69;;;7.17;72.59
64336;BME280;50672;53.362;-6.240;2022-10-16T07:24:14;100648.28;;;7.17;72.81
64336;BME280;50672;53.362;-6.240;2022-10-16T07:26:43;100658.78;;;7.21;72.98
64336;BME280;50672;53.362;-6.240;2022-10-16T07:29:17;100666.28;;;7.27;73.02
64336;BME280;50672;53.362;-6.240;2022-10-16T07:31:44;100674.78;;;7.32;73.02
64336;BME280;50672;53.362;-6.240;2022-10-16T07:34:13;100688.72;;;7.37;72.98
64336;BME280;50672;53.362;-6.240;2022-10-16T07:36:40;100682.28;;;7.38;73.39
64336;BME280;50672;53.362;-6.240;2022-10-16T07:39:08;100694.81;;;7.39;73.56
64336;BME280;50672;53.362;-6.240;2022-10-16T07:41:34;100702.78;;;7.41;73.58
64336;BME280;50672;53.362;-6.240;2022-10-16T07:44:03;100712.28;;;7.45;73.39
64336;BME280;50672;53.362;-6.240;2022-10-16T07:46:30;100730.09;;;7.47;73.85
64336;BME280;50672;53.362;-6.240;2022-10-16T07:48:57;100730.31;;;7.54;73.89
64336;BME280;50672;53.362;-6.240;2022-10-16T07:51:25;100741.38;;;7.61;74.04
64336;BME280;50672;53.362;-6.240;2022-10-16T07:53:53;100739.75;;;7.68;74.13
64336;BME280;50672;53.362;-6.240;2022-10-16T07:56:20;100751.66;;;7.75;74.11
64336;BME280;50672;53.362;-6.240;2022-10-16T07:59:07;100749.84;;;7.84;74.24
64336;BME280;50672;53.362;-6.240;2022-10-16T08:02:34;100751.47;;;7.95;74.44
64336;BME280;50672;53.362;-6.240;2022-10-16T08:06:00;100769.84;;;8.09;74.00
64336;BME280;50672;53.362;-6.240;2022-10-16T08:08:53;100774.16;;;8.20;74.10
64336;BME280;50672;53.362;-6.240;2022-10-16T08:11:22;100776.78;;;8.30;73.87
64336;BME280;50672;53.362;-6.240;2022-10-16T08:14:09;100774.94;;;8.38;73.53
64336;BME280;50672;53.362;-6.240;2022-10-16T08:16:44;100770.63;;;8.46;73.52
64336;BME280;50672;53.362;-6.240;2022-10-16T08:19:11;100770.81;;;8.52;73.37
64336;BME280;50672;53.362;-6.240;2022-10-16T08:21:58;100770.03;;;8.60;73.53
64336;BME280;50672;53.362;-6.240;2022-10-16T08:25:25;100767.50;;;8.67;73.66
64336;BME280;50672;53.362;-6.240;2022-10-16T08:28:40;100762.28;;;8.74;73.58
64336;BME280;50672;53.362;-6.240;2022-10-16T08:31:13;100756.19;;;8.80;73.61
64336;BME280;50672;53.362;-6.240;2022-10-16T08:33:56;100754.53;;;8.87;73.34
64336;BME280;50672;53.362;-6.240;2022-10-16T08:36:24;100748.44;;;8.93;73.62
64336;BME280;50672;53.362;-6.240;2022-10-16T08:39:10;100751.03;;;9.03;73.59
64336;BME280;50672;53.362;-6.240;2022-10-16T08:51:24;100763.34;;;9.56;73.13
64336;BME280;50672;53.362;-6.240;2022-10-16T08:54:53;100771.84;;;9.70;72.69
64336;BME280;50672;53.362;-6.240;2022-10-16T08:58:20;100777.94;;;9.80;72.74
64336;BME280;50672;53.362;-6.240;2022-10-16T09:01:49;100778.97;;;9.87;72.93
64336;BME280;50672;53.362;-6.240;2022-10-16T09:12:16;100765.72;;;10.09;72.61
64336;BME280;50672;53.362;-6.240;2022-10-16T09:20:49;100783.00;;;10.33;71.87
64336;BME280;50672;53.362;-6.240;2022-10-16T09:23:36;100795.28;;;10.37;71.68
64336;BME280;50672;53.362;-6.240;2022-10-16T09:27:03;100802.06;;;10.41;71.85
64336;BME280;50672;53.362;-6.240;2022-10-16T09:30:47;100812.91;;;10.49;71.57
64336;BME280;50672;53.362;-6.240;2022-10-16T09:34:00;100810.53;;;10.54;71.71
64336;BME280;50672;53.362;-6.240;2022-10-16T09:36:52;100814.78;;;10.57;71.63
64336;BME280;50672;53.362;-6.240;2022-10-16T09:39:19;100819.03;;;10.59;71.61
64336;BME280;50672;53.362;-6.240;2022-10-16T09:42:06;100824.13;;;10.63;71.29
64336;BME280;50672;53.362;-6.240;2022-10-16T09:45:40;100825.13;;;10.70;71.13
64336;BME280;50672;53.362;-6.240;2022-10-16T09:48:12;100824.63;;;10.74;71.28
64336;BME280;50672;53.362;-6.240;2022-10-16T09:51:00;100812.47;;;10.85;70.95
64336;BME280;50672;53.362;-6.240;2022-10-16T09:57:15;100824.66;;;11.06;70.88
64336;BME280;50672;53.362;-6.240;2022-10-16T10:04:40;100830.16;;;11.29;70.35
64336;BME280;50672;53.362;-6.240;2022-10-16T10:08:05;100818.00;;;11.40;70.14
64336;BME280;50672;53.362;-6.240;2022-10-16T10:11:12;100819.66;;;11.49;69.84
64336;BME280;50672;53.362;-6.240;2022-10-16T10:14:15;100831.25;;;11.51;69.97
64336;BME280;50672;53.362;-6.240;2022-10-16T10:17:22;100828.50;;;11.51;69.59
64336;BME280;50672;53.362;-6.240;2022-10-16T10:20:21;100814.69;;;11.53;69.85
64336;BME280;50672;53.362;-6.240;2022-10-16T10:23:45;100810.75;;;11.55;69.69
64336;BME280;50672;53.362;-6.240;2022-10-16T10:27:18;100806.16;;;11.56;69.08
64336;BME280;50672;53.362;-6.240;2022-10-16T10:30:01;100809.72;;;11.56;69.20
64336;BME280;50672;53.362;-6.240;2022-10-16T10:32:47;100810.91;;;11.54;68.92
64336;BME280;50672;53.362;-6.240;2022-10-16T10:35:25;100800.88;;;11.54;68.92
64336;BME280;50672;53.362;-6.240;2022-10-16T10:38:05;100794.56;;;11.54;68.90
64336;BME280;50672;53.362;-6.240;2022-10-16T10:40:56;100799.84;;;11.55;68.71
64336;BME280;50672;53.362;-6.240;2022-10-16T10:46:34;100815.16;;;11.56;68.19
64336;BME280;50672;53.362;-6.240;2022-10-16T10:52:59;100814.00;;;11.51;68.05
64336;BME280;50672;53.362;-6.240;2022-10-16T11:02:44;100832.22;;;11.58;67.57
64336;BME280;50672;53.362;-6.240;2022-10-16T11:12:31;100841.47;;;11.49;66.81
64336;BME280;50672;53.362;-6.240;2022-10-16T11:16:32;100841.81;;;11.46;66.73
64336;BME280;50672;53.362;-6.240;2022-10-16T11:23:59;100837.44;;;11.37;66.48
64336;BME280;50672;53.362;-6.240;2022-10-16T11:26:58;100847.13;;;11.39;66.05
64336;BME280;50672;53.362;-6.240;2022-10-16T11:30:25;100853.09;;;11.43;66.12
64336;BME280;50672;53.362;-6.240;2022-10-16T11:50:33;100837.91;;;11.49;65.19
64336;BME280;50672;53.362;-6.240;2022-10-16T11:54:21;100831.75;;;11.46;65.36
64336;BME280;50672;53.362;-6.240;2022-10-16T11:57:10;100834.47;;;11.46;65.20
64336;BME280;50672;53.362;-6.240;2022-10-16T12:09:09;100813.59;;;11.39;64.43
64336;BME280;50672;53.362;-6.240;2022-10-16T12:12:43;100796.56;;;11.37;64.31
64336;BME280;50672;53.362;-6.240;2022-10-16T12:19:18;100800.97;;;11.38;64.47
64336;BME280;50672;53.362;-6.240;2022-10-16T12:22:27;100790.59;;;11.41;64.37
64336;BME280;50672;53.362;-6.240;2022-10-16T12:24:56;100792.44;;;11.41;64.19
64336;BME280;50672;53.362;-6.240;2022-10-16T12:27:31;100791.91;;;11.45;64.45
64336;BME280;50672;53.362;-6.240;2022-10-16T12:30:22;100793.78;;;11.45;64.27
64336;BME280;50672;53.362;-6.240;2022-10-16T12:33:54;100789.53;;;11.42;64.22
64336;BME280;50672;53.362;-6.240;2022-10-16T12:37:20;100793.81;;;11.37;64.37
64336;BME280;50672;53.362;-6.240;2022-10-16T12:41:05;100796.28;;;11.32;64.16
64336;BME280;50672;53.362;-6.240;2022-10-16T12:44:34;100807.31;;;11.30;63.87
64336;BME280;50672;53.362;-6.240;2022-10-16T12:54:56;100794.94;;;11.27;64.29
64336;BME280;50672;53.362;-6.240;2022-10-16T13:00:50;100778.63;;;11.19;64.13
64336;BME280;50672;53.362;-6.240;2022-10-16T13:07:35;100760.25;;;11.13;63.83
64336;BME280;50672;53.362;-6.240;2022-10-16T13:26:09;100728.53;;;10.97;63.81
64336;BME280;50672;53.362;-6.240;2022-10-16T13:29:00;100721.19;;;10.98;63.91
64336;BME280;50672;53.362;-6.240;2022-10-16T13:32:22;100716.25;;;11.01;64.13
64336;BME280;50672;53.362;-6.240;2022-10-16T13:34:49;100714.34;;;11.02;64.09
64336;BME280;50672;53.362;-6.240;2022-10-16T13:37:18;100712.66;;;11.01;64.12
64336;BME280;50672;53.362;-6.240;2022-10-16T13:39:45;100716.44;;;11.00;64.06
64336;BME280;50672;53.362;-6.240;2022-10-16T13:42:39;100711.31;;;10.97;64.23
64336;BME280;50672;53.362;-6.240;2022-10-16T13:45:18;100703.31;;;10.95;64.03
64336;BME280;50672;53.362;-6.240;2022-10-16T13:47:45;100699.94;;;10.93;64.67
64336;BME280;50672;53.362;-6.240;2022-10-16T13:50:32;100698.25;;;10.92;64.61
64336;BME280;50672;53.362;-6.240;2022-10-16T13:53:59;100694.88;;;10.90;65.02
64336;BME280;50672;53.362;-6.240;2022-10-16T13:57:24;100671.19;;;10.90;65.07
64336;BME280;50672;53.362;-6.240;2022-10-16T13:59:53;100658.06;;;10.94;65.49
64336;BME280;50672;53.362;-6.240;2022-10-16T14:02:22;100654.81;;;10.99;65.94
64336;BME280;50672;53.362;-6.240;2022-10-16T14:04:53;100650.00;;;11.01;66.35
64336;BME280;50672;53.362;-6.240;2022-10-16T14:07:29;100648.97;;;11.02;66.53
64336;BME280;50672;53.362;-6.240;2022-10-16T14:10:02;100652.53;;;11.02;67.25
64336;BME280;50672;53.362;-6.240;2022-10-16T14:12:56;100647.28;;;11.01;67.29
64336;BME280;50672;53.362;-6.240;2022-10-16T14:16:07;100639.13;;;11.01;67.66
64336;BME280;50672;53.362;-6.240;2022-10-16T14:19:27;100636.88;;;11.04;68.18
64336;BME280;50672;53.362;-6.240;2022-10-16T14:22:39;100628.53;;;11.06;68.65
64336;BME280;50672;53.362;-6.240;2022-10-16T14:30:37;100603.00;;;11.07;69.09
64336;BME280;50672;53.362;-6.240;2022-10-16T14:37:01;100588.56;;;11.21;69.35
64336;BME280;50672;53.362;-6.240;2022-10-16T14:39:58;100575.63;;;11.23;69.42
64336;BME280;50672;53.362;-6.240;2022-10-16T14:42:45;100575.44;;;11.25;69.33
64336;BME280;50672;53.362;-6.240;2022-10-16T14:45:18;100579.81;;;11.26;69.48
64336;BME280;50672;53.362;-6.240;2022-10-16T14:47:49;100584.25;;;11.27;69.21
64336;BME280;50672;53.362;-6.240;2022-10-16T14:50:36;100584.75;;;11.31;69.46
64336;BME280;50672;53.362;-6.240;2022-10-16T14:54:03;100579.75;;;11.34;69.28
64336;BME280;50672;53.362;-6.240;2022-10-16T14:57:55;100568.31;;;11.39;69.24
64336;BME280;50672;53.362;-6.240;2022-10-16T15:01:03;100560.78;;;11.41;69.41
64336;BME280;50672;53.362;-6.240;2022-10-16T15:03:29;100554.97;;;11.44;69.26
64336;BME280;50672;53.362;-6.240;2022-10-16T15:05:56;100553.75;;;11.46;69.27
64336;BME280;50672;53.362;-6.240;2022-10-16T15:08:23;100544.16;;;11.51;69.36
64336;BME280;50672;53.362;-6.240;2022-10-16T15:10:50;100536.66;;;11.53;69.26
64336;BME280;50672;53.362;-6.240;2022-10-16T15:13:17;100538.13;;;11.55;69.39
64336;BME280;50672;53.362;-6.240;2022-10-16T15:15:48;100523.09;;;11.59;69.13
64336;BME280;50672;53.362;-6.240;2022-10-16T15:18:18;100521.03;;;11.61;69.14
64336;BME280;50672;53.362;-6.240;2022-10-16T15:20:49;100512.88;;;11.61;69.31
64336;BME280;50672;53.362;-6.240;2022-10-16T15:23:19;100507.22;;;11.63;69.10
64336;BME280;50672;53.362;-6.240;2022-10-16T15:25:48;100499.03;;;11.63;69.12
64336;BME280;50672;53.362;-6.240;2022-10-16T15:28:36;100478.06;;;11.63;69.03
64336;BME280;50672;53.362;-6.240;2022-10-16T15:32:02;100482.69;;;11.63;68.87
64336;BME280;50672;53.362;-6.240;2022-10-16T15:35:55;100480.16;;;11.61;68.88
64336;BME280;50672;53.362;-6.240;2022-10-16T15:39:11;100478.25;;;11.62;68.83
64336;BME280;50672;53.362;-6.240;2022-10-16T15:42:28;100463.41;;;11.65;68.96
64336;BME280;50672;53.362;-6.240;2022-10-16T15:45:35;100460.69;;;11.65;68.69
64336;BME280;50672;53.362;-6.240;2022-10-16T15:48:21;100459.00;;;11.63;68.77
64336;BME280;50672;53.362;-6.240;2022-10-16T15:51:28;100445.34;;;11.63;68.72
64336;BME280;50672;53.362;-6.240;2022-10-16T15:53:59;100444.53;;;11.63;68.81
64336;BME280;50672;53.362;-6.240;2022-10-16T15:56:30;100439.06;;;11.63;68.77
64336;BME280;50672;53.362;-6.240;2022-10-16T15:59:00;100431.91;;;11.62;68.98
64336;BME280;50672;53.362;-6.240;2022-10-16T16:01:31;100421.22;;;11.60;68.89
64336;BME280;50672;53.362;-6.240;2022-10-16T16:04:18;100423.28;;;11.58;69.08
64336;BME280;50672;53.362;-6.240;2022-10-16T16:07:45;100412.59;;;11.57;69.50
64336;BME280;50672;53.362;-6.240;2022-10-16T16:11:29;100400.19;;;11.54;69.66
64336;BME280;50672;53.362;-6.240;2022-10-16T16:14:55;100386.06;;;11.51;69.81
64336;BME280;50672;53.362;-6.240;2022-10-16T16:18:22;100378.47;;;11.46;70.47
64336;BME280;50672;53.362;-6.240;2022-10-16T16:21:53;100371.03;;;11.40;70.75
64336;BME280;50672;53.362;-6.240;2022-10-16T16:25:19;100372.28;;;11.37;71.22
64336;BME280;50672;53.362;-6.240;2022-10-16T16:28:26;100360.72;;;11.35;71.67
64336;BME280;50672;53.362;-6.240;2022-10-16T16:30:53;100350.84;;;11.34;72.09
64336;BME280;50672;53.362;-6.240;2022-10-16T16:33:20;100351.72;;;11.35;72.27
64336;BME280;50672;53.362;-6.240;2022-10-16T16:35:46;100343.53;;;11.35;72.24
64336;BME280;50672;53.362;-6.240;2022-10-16T16:38:33;100349.81;;;11.35;72.68
64336;BME280;50672;53.362;-6.240;2022-10-16T16:42:26;100328.69;;;11.37;72.82
64336;BME280;50672;53.362;-6.240;2022-10-16T16:45:55;100323.06;;;11.39;73.18
64336;BME280;50672;53.362;-6.240;2022-10-16T16:49:22;100308.84;;;11.43;73.50
64336;BME280;50672;53.362;-6.240;2022-10-16T16:53:14;100308.06;;;11.50;73.65
64336;BME280;50672;53.362;-6.240;2022-10-16T16:56:22;100289.66;;;11.52;74.35
64336;BME280;50672;53.362;-6.240;2022-10-16T16:59:11;100282.78;;;11.56;74.06
64336;BME280;50672;53.362;-6.240;2022-10-16T17:02:15;100267.06;;;11.58;74.52
64336;BME280;50672;53.362;-6.240;2022-10-16T17:08:24;100250.34;;;11.61;74.94
64336;BME280;50672;53.362;-6.240;2022-10-16T17:10:59;100230.38;;;11.60;75.08
64336;BME280;50672;53.362;-6.240;2022-10-16T17:13:27;100220.50;;;11.59;75.57
64336;BME280;50672;53.362;-6.240;2022-10-16T17:16:15;100241.50;;;11.59;75.22
64336;BME280;50672;53.362;-6.240;2022-10-16T17:19:21;100224.31;;;11.58;75.91
64336;BME280;50672;53.362;-6.240;2022-10-16T17:22:08;100228.88;;;11.58;76.15
64336;BME280;50672;53.362;-6.240;2022-10-16T17:24:52;100213.41;;;11.58;76.05
64336;BME280;50672;53.362;-6.240;2022-10-16T17:27:20;100198.72;;;11.59;76.16
64336;BME280;50672;53.362;-6.240;2022-10-16T17:29:51;100205.84;;;11.60;76.56
64336;BME280;50672;53.362;-6.240;2022-10-16T17:32:37;100202.09;;;11.61;76.86
64336;BME280;50672;53.362;-6.240;2022-10-16T17:36:04;100183.00;;;11.61;76.82
64336;BME280;50672;53.362;-6.240;2022-10-16T17:39:30;100154.72;;;11.62;77.06
64336;BME280;50672;53.362;-6.240;2022-10-16T17:43:02;100162.69;;;11.64;76.98
64336;BME280;50672;53.362;-6.240;2022-10-16T17:46:29;100125.38;;;11.65;77.69
64336;BME280;50672;53.362;-6.240;2022-10-16T17:49:55;100120.56;;;11.67;77.56
64336;BME280;50672;53.362;-6.240;2022-10-16T17:53:02;100124.13;;;11.67;77.49
64336;BME280;50672;53.362;-6.240;2022-10-16T17:55:28;100123.94;;;11.69;77.92
64336;BME280;50672;53.362;-6.240;2022-10-16T17:57:56;100118.28;;;11.70;78.08
64336;BME280;50672;53.362;-6.240;2022-10-16T18:00:22;100112.63;;;11.72;78.15
64336;BME280;50672;53.362;-6.240;2022-10-16T18:02:49;100120.44;;;11.75;77.86
64336;BME280;50672;53.362;-6.240;2022-10-16T18:05:16;100110.34;;;11.75;78.41
64336;BME280;50672;53.362;-6.240;2022-10-16T18:07:43;100080.34;;;11.75;78.44
64336;BME280;50672;53.362;-6.240;2022-10-16T18:10:10;100088.53;;;11.75;78.38